Aviosuperficie "San Mauro"

IT-0372 · Friuli Venezia Giulia, 意大利

METAR的历史 IT-0372 · Aviosuperficie "San Mauro"

下面你可以看到过去几天的METARs。 选择年份以浏览从2007年开始的旧METAR。

2022年12月7日

时间 代码 天气 温度 能见度 天花板 METAR/SPECI
12:55
V
10 °C 10 km+ - 040° 040° 7 kt METAR LIPI 071155Z 04007KT CAVOK 10/02 Q1012 RMK SCT SCT200 VIS MIN 9999 WIND THR06 07007KT WIND THR24 06006KT BLU
11:55
V
10 °C 10 km+ - 030° 030° 8 kt METAR LIPI 071055Z 03008KT CAVOK 10/02 Q1012 RMK SCT SCT200 VIS MIN 9999 WIND THR06 06008KT WIND THR24 04009KT BLU
10:55
V
9 °C 10 km+ - 020° 020° 7 kt METAR LIPI 070955Z 02007KT CAVOK 09/01 Q1013 RMK SCT SCT200 VIS MIN 9999 WIND THR06 05009KT WIND THR24 03007KT BLU
09:55
V
6 °C 10 km+ - 350° 350° 7 kt METAR LIPI 070855Z 35007KT CAVOK 06/01 Q1013
08:55
V
4 °C 10 km+ - 350° 350° 6 kt METAR LIPI 070755Z 35006KT CAVOK 04/M00 Q1012
07:55
V
3 °C 10 km+ - 340° 340° 6 kt METAR LIPI 070655Z 34006KT CAVOK 03/M01 Q1012
06:55
V
2 °C 10 km+ - 340° 340° 6 kt METAR LIPI 070555Z 34006KT CAVOK 02/M01 Q1012
05:55
V
2 °C 10 km+ - 340° 340° 6 kt METAR LIPI 070455Z 34006KT CAVOK 02/M01 Q1013
04:55
V
2 °C 10 km+ - 340° 340° 6 kt METAR LIPI 070355Z 34006KT CAVOK 02/M01 Q1013 RMK SKC VIS MIN 9999 WIND THR06 02008KT WIND THR24 35005KT BLU
03:55
V
3 °C 10 km+ - 350° 350° 6 kt METAR LIPI 070255Z 35006KT CAVOK 03/M01 Q1013
02:55
V
3 °C 10 km+ - 340° 340° 6 kt METAR LIPI 070155Z 34006KT CAVOK 03/M00 Q1013 RMK SKC VIS MIN 9999 WIND THR06 02007KT WIND THR24 36006KT BLU
01:55
V
3 °C 10 km+ - 340° 340° 6 kt METAR LIPI 070055Z 34006KT CAVOK 03/M01 Q1013 RMK SKC VIS MIN 9999 WIND THR06 02008KT WIND THR24 35005KT BLU
00:55
V
2 °C 10 km+ - 340° 340° 2 kt METAR LIPI 062355Z 34002KT 9999 FEW030 02/M01 Q1014

2022年12月6日

时间 代码 天气 温度 能见度 天花板 METAR/SPECI
23:55
V
2 °C 10 km+ - 340° 340° 5 kt METAR LIPI 062255Z 34005KT CAVOK 02/M01 Q1014 RMK FEW FEW160 VIS MIN 9999 WIND THR06 02006KT WIND THR24 36005KT BLU
22:55
V
2 °C 10 km+ - 350° 350° 5 kt METAR LIPI 062155Z 35005KT CAVOK 02/M00 Q1014
21:55
V
2 °C 10 km+ - 360° 360° 5 kt METAR LIPI 062055Z 36005KT CAVOK 02/00 Q1014 RMK SKC VIS MIN 9999 WIND THR06 04005KT WIND THR24 02004KT BLU
20:55
V
3 °C 10 km+ - 020° 020° 4 kt METAR LIPI 061955Z 02004KT CAVOK 03/01 Q1014
19:55
V
4 °C 10 km+ - 030° 030° 4 kt METAR LIPI 061855Z 03004KT 9999 FEW090 04/02 Q1014
18:55
V
4 °C 10 km+ - 040° 040° 2 kt METAR LIPI 061755Z 04002KT CAVOK 04/02 Q1014
17:55
V
5 °C 10 km+ - 330° 330° 4 kt METAR LIPI 061655Z 33004KT 9999 FEW100 05/03 Q1014 RMK FEW VIS MIN 9999 WIND THR06 36003KT WIND THR24 34004KT BLU
16:55
V
8 °C 10 km+ - 250° 250° 1 kt METAR LIPI 061555Z 25001KT CAVOK 08/07 Q1014 RMK FEW FEW200 VIS MIN 9999 WIND THR06 29001KT WIND THR24 25001KT BLU
15:55
V
10 °C 10 km+ - 140° 140° 1 kt METAR LIPI 061455Z 14001KT CAVOK 10/06 Q1014
14:55
V
11 °C 10 km+ - 100° 100° 2 kt METAR LIPI 061355Z 10002KT 9999 FEW035 11/06 Q1014
13:55
V
11 °C 10 km+ - 010° 010° 2 kt METAR LIPI 061255Z 01002KT 9999 FEW030 11/06 Q1015
12:55
V
10 °C 10 km+ - 150° 150° 2 kt METAR LIPI 061155Z 15002KT 9999 SCT080 10/06 Q1015
11:55
V
10 °C 10 km+ - 180° 180° 2 kt METAR LIPI 061055Z 18002KT 9999 SCT080 10/06 Q1016
10:55
V
8 °C 10 km+ - 190° 190° 2 kt METAR LIPI 060955Z 19002KT 9999 FEW080 08/05 Q1016
09:55
V
7 °C 10 km+ - 350° 350° 4 kt METAR LIPI 060855Z 35004KT 9999 FEW002 07/04 Q1016
09:32
V
6 °C 10 km+ - 350° 350° 3 kt METAR LIPI 060832Z 35003KT 9999 2000W BR SCT002 06/04 Q1016 RMK SCT VIS MAX E 20 KM VIS MIN 2000W WIND THR06 03004KT WIND THR24 36001KT YLO
08:55
L
6 °C 900 m 200 ft 020° 020° 3 kt METAR LIPI 060755Z 02003KT 0900 FG BKN002 06/04 Q1016
07:55
L
6 °C 500 m 200 ft 040° 040° 6 kt METAR LIPI 060655Z 04006KT 0500 FG OVC002 06/03 Q1015
06:55
L
7 °C 700 m 200 ft 340° 340° 4 kt METAR LIPI 060555Z 34004KT 0700 FG OVC002 07/04 Q1015
05:55
L
7 °C 900 m 700 ft 010° 010° 3 kt METAR LIPI 060455Z 01003KT 0900 FG SCT004 BKN007 07/04 Q1015
04:55
L
7 °C 200 m 200 ft 360° 360° 4 kt METAR LIPI 060355Z 36004KT 0200 FG OVC002 07/04 Q1015
03:55
L
7 °C 0 m 100 ft 350° 350° 3 kt METAR LIPI 060255Z 35003KT 0100 0000 FG BKN001 SCT005 07/04 Q1015
02:55
L
7 °C 400 m 2.500 ft 070° 070° 3 kt METAR LIPI 060155Z 07003KT 0400 FG SCT016 BKN025 07/05 Q1015
01:55
L
7 °C 200 m - 080° 080° 2 kt METAR LIPI 060055Z 08002KT 0200 FG SCT002 SCT025 07/05 Q1015
00:55
L
8 °C 200 m 100 ft Var Var 1 kt METAR LIPI 052355Z VRB01KT 0200 -DZFG BKN001 08/05 Q1015

2022年12月5日

时间 代码 天气 温度 能见度 天花板 METAR/SPECI
23:55
L
8 °C 500 m 200 ft 190° 190° 4 kt METAR LIPI 052255Z 19004KT 0500 BCFG OVC002 08/06 Q1015
22:55
L
8 °C 700 m 1.100 ft 090° 090° 3 kt METAR LIPI 052155Z 09003KT 0700 BCFG SCT008 BKN011 08/06 Q1015
21:55
I
8 °C 3 km 1.000 ft 100° 100° 3 kt METAR LIPI 052055Z 10003KT 3000 BR BKN010 08/06 Q1015
21:09
L
9 °C 600 m - 010° 010° 2 kt METAR LIPI 052009Z 01002KT 0600 FG SCT008 SCT012 09/08 Q1015 RMK BKN VIS MIN 0600 WIND THR06 11002KT WIND THR24 06002KT RED
20:55
I
9 °C 3 km - 110° 110° 2 kt METAR LIPI 051955Z 11002KT 3000 BR SCT009 SCT083 09/08 Q1015
19:55
M
9 °C 10 km+ 2.500 ft 300° 300° 3 kt METAR LIPI 051855Z 30003KT 9999 SCT008 BKN025 09/09 Q1014 RETS
18:55
V
10 °C 10 km+ - 230° 230° 3 kt METAR LIPI 051755Z 23003KT 9999 -TSRA SCT020CB SCT030 10/09 Q1014
18:28
V
10 °C 10 km+ - 200° 200° 7 kt METAR LIPI 051728Z 20007KT 9999 -TSRA SCT020CB SCT030 10/10 Q1014 RMK OVC VIS MIN 9999 WIND THR06 22007KT WIND THR24 21006KT BLU
17:55
V
10 °C 10 km+ 3.000 ft 020° 020° 1 kt METAR LIPI 051655Z 02001KT 9999 RA SCT020 BKN030 10/10 Q1015
16:55
V
11 °C 10 km+ 3.000 ft 110° 110° 3 kt METAR LIPI 051555Z 11003KT 9999 SCT016 BKN030 11/09 Q1015 RMK OVC VIS MIN 9999 WIND THR06 17003KT WIND THR24 12003KT BLU
15:55
V
11 °C 10 km+ - 100° 100° 3 kt METAR LIPI 051455Z 10003KT 9999 SCT023 SCT030 11/10 Q1016 RERA
14:55
V
12 °C 10 km+ 3.000 ft 100° 100° 5 kt METAR LIPI 051355Z 10005KT 9999 SCT009 BKN030 12/09 Q1016
13:55
M
12 °C 10 km+ 2.500 ft 080° 080° 6 kt METAR LIPI 051255Z 08006KT 9999 SCT010 BKN025 12/09 Q1017
12:55
V
11 °C 10 km+ - 040° 040° 6 kt METAR LIPI 051155Z 04006KT 9999 SCT010 SCT030 11/09 Q1017
11:55
V
10 °C 10 km+ - 350° 350° 7 kt METAR LIPI 051055Z 35007KT 9999 SCT010 SCT030 10/09 Q1018
10:55
V
9 °C 10 km+ 3.000 ft 310° 310° 3 kt METAR LIPI 050955Z 31003KT 9999 SCT010 BKN030 09/09 Q1018

我们和第三方通过cookies跟踪您在我们网站上的互联网行为。如果你继续,我们认为你同意我们的饼干政策